Jal, NM (88252)

8:07 AM MDT on October 23, 2014 (GMT -0600)
Winkler County | Change Station
CLOSE
Current Station
Airport
Location: Wink,
Elevation: 2822 ft
Nearby Weather Stations
Active Advisory: Dense Fog Advisory

Elev 2822 ft 31.78 °N, 103.20 °W | Updated 14 minutes ago

Overcast
Overcast
57 °F
Feels Like 57 °F
N
4
Wind Variable Wind from ENE

Today
High -- | Low -- °F
--% Chance of Precip.
Yesterday
High -- | Low -- °F
Precip. -- in
7:02 AM 6:11 PM
Waning Crescent, 0% visible
Pressure 30.06 in
Visibility 10.0 miles
Clouds Overcast 200 ft
Dew Point 57 °F
Humidity 100%
Rainfall 0.00 in
Snow Depth Not available.
UV 0 out of 12
Pollen 5.60 out of 12
Air Quality Not available.
Flu Activity Sporadic
METAR KINK 231353Z AUTO 07003KT 10SM OVC002 14/14 A3013 RMK AO2 SLP177 T01390139

More Conditions Fewer Conditions

Pressure 30.06 in
Visibility 10.0 miles
Clouds Overcast 200 ft
Dew Point 57 °F
Humidity 100%
Rainfall 0.00 in
Snow Depth Not available.
UV 0 out of 12
Pollen 5.60 out of 12
Air Quality Not available.
Flu Activity Sporadic
METAR KINK 231353Z AUTO 07003KT 10SM OVC002 14/14 A3013 RMK AO2 SLP177 T01390139

More Conditions Fewer Conditions

10-Day Weather Forecast

Almanac

Astronomy

Oct. 23, 2014 Rise Set
Actual Time 7:02 AM MDT 6:11 PM MDT
Civil Twilight 6:37 AM MDT 6:36 PM MDT
Nautical Twilight 6:08 AM MDT 7:04 PM MDT
Astronomical Twilight 5:40 AM MDT 7:33 PM MDT
Moon 6:45 AM MDT 6:14 PM MDT
Length of Visible Light 11h 58m
Length of Day
11h 08m
Tomorrow will be 1m 49s shorter.
Waning Crescent, 0% of the Moon is Illuminated
Today
Waning Crescent
Oct 23
New
Oct 30
First Quarter
Nov 6
Full
Nov 14
Last Quarter

Today's Extremes

State Highs State Lows

Community

WunderPhotos

Upload Photos

1,764,247 photos uploaded!

Nearby

Snow Depth

Station Depth Elevation
Sierra Blanca 0 in 10280 ft
McKnight Cabin 0 in 9240 ft
Lookout Mountain 0 in 8500 ft
Wesner Springs 3 in 11120 ft
Elk Cabin 0 in 8210 ft

Earthquake Activity

City Distance Mag. Time & Date
No recent earthquake activity has been reported nearby.
Minimum magnitude displayed is 2.5.

Coastal Water Temperatures

Place Temperature
No Stations Reporting

Nearby Weather Stations